Highland City, Florida
Current Conditions -  °F | °C
As of 10:47 AM on Monday 26 Jan 2015 (Local Time) from KBOW Reporting Station
Scattered Clouds Scattered Clouds  
Wind Chill: 63°   Ceiling: Unl
Heat Index: 63°   Visibility: 10mi
Dew Point: 46°   Wind: 13mph
Humidity: 55%   Direction: 290°WNW
Pressure: 29.94"   Gusts: NA
Location:  27.97°N, 81.88°W
Report Text: KBOW 261547Z 29011KT 10SM SCT036 17/08 A2994
Loading
Personal Weather Stations






























Interactive Weather Map New forecast layout! Learn more

10-Day Weather Forecast

Advertisements
Track Severe Weather on mobile